Time;durP1;ratioP1;P1;durP2;ratioP2;P2;SDS_P1;SDS_P2;PMS_P1;PMS_P2;Temp;Humidity;BMP_temperature;BMP_pressure;BME280_temperature;BME280_humidity;BME280_pressure;Samples;Min_cycle;Max_cycle;Signal;HPM_P1;HPM_P2
2022/07/20 00:01:01;;;;;;;11.43;7.72;;;16.20;99.90;;;;;;4954692;28;20513;-84
2022/07/20 00:03:30;;;;;;;14.25;8.48;;;16.20;99.90;;;;;;4966637;28;20438;-85
2022/07/20 00:05:57;;;;;;;12.77;7.85;;;16.20;99.90;;;;;;4966516;28;20699;-85
2022/07/20 00:11:19;;;;;;;13.07;8.60;;;16.30;99.90;;;;;;4966424;28;20398;-85
2022/07/20 00:14:00;;;;;;;10.07;7.13;;;16.30;99.90;;;;;;4935570;29;20472;-85
2022/07/20 00:16:30;;;;;;;11.93;8.02;;;16.20;99.90;;;;;;4934249;29;20417;-84
2022/07/20 00:18:58;;;;;;;9.68;6.95;;;16.20;99.90;;;;;;4935469;29;20398;-85
2022/07/20 00:21:25;;;;;;;13.45;7.75;;;16.20;99.90;;;;;;4935462;29;20398;-85
2022/07/20 00:23:54;;;;;;;13.07;6.80;;;16.20;99.90;;;;;;4934227;29;20488;-84
2022/07/20 00:26:22;;;;;;;12.23;7.00;;;16.20;99.90;;;;;;4949907;29;20402;-85
2022/07/20 00:28:53;;;;;;;9.70;6.33;;;16.20;99.90;;;;;;4950257;28;20425;-84
2022/07/20 00:31:22;;;;;;;8.53;6.00;;;16.20;99.90;;;;;;4965932;28;20755;-85
2022/07/20 00:33:49;;;;;;;12.20;6.47;;;16.10;99.90;;;;;;4935200;29;20400;-85
2022/07/20 00:36:19;;;;;;;13.40;5.95;;;16.10;99.90;;;;;;4933989;29;20400;-85
2022/07/20 00:38:49;;;;;;;10.48;6.70;;;16.10;99.90;;;;;;4965619;28;20493;-85
2022/07/20 00:41:18;;;;;;;9.90;6.28;;;16.10;99.90;;;;;;4935014;29;20881;-84
2022/07/20 00:43:56;;;;;;;10.20;6.10;;;16.10;99.90;;;;;;4934643;29;20394;-85
2022/07/20 00:46:24;;;;;;;13.52;5.82;;;16.00;99.90;;;;;;4965409;28;20432;-84
2022/07/20 00:48:52;;;;;;;10.85;5.60;;;16.00;99.90;;;;;;4934899;29;20426;-85
2022/07/20 00:51:21;;;;;;;12.65;6.15;;;16.00;99.90;;;;;;4934832;29;20848;-85
2022/07/20 00:53:49;;;;;;;9.85;5.40;;;16.00;99.90;;;;;;4964634;28;20418;-85
2022/07/20 00:56:18;;;;;;;8.95;5.32;;;16.00;99.90;;;;;;4930189;29;20407;-85
2022/07/20 00:58:46;;;;;;;10.85;5.57;;;15.90;99.90;;;;;;4930419;29;20407;-85
2022/07/20 01:01:15;;;;;;;8.70;4.80;;;15.80;99.90;;;;;;4946791;29;20455;-85
2022/07/20 01:03:44;;;;;;;6.82;4.22;;;15.70;99.90;;;;;;4926099;29;20400;-85
2022/07/20 01:06:12;;;;;;;7.13;4.13;;;15.70;99.90;;;;;;4915565;29;20407;-85
2022/07/20 01:08:39;;;;;;;6.15;3.50;;;15.50;99.90;;;;;;4946156;29;20815;-84
2022/07/20 01:11:07;;;;;;;7.47;4.00;;;15.40;99.90;;;;;;4945926;29;20403;-84
2022/07/20 01:13:35;;;;;;;6.68;3.50;;;15.40;99.90;;;;;;4915524;29;20490;-85
2022/07/20 01:16:03;;;;;;;8.75;3.40;;;15.50;99.90;;;;;;4898612;29;20890;-85
2022/07/20 01:18:31;;;;;;;6.30;2.88;;;15.40;99.90;;;;;;4961268;28;20917;-85
2022/07/20 01:21:08;;;;;;;5.65;3.00;;;15.30;99.90;;;;;;4933261;29;20789;-85
2022/07/20 01:23:36;;;;;;;6.97;3.13;;;15.30;99.90;;;;;;4946546;29;20404;-85
2022/07/20 01:26:03;;;;;;;6.40;3.20;;;15.30;99.90;;;;;;4953691;28;20400;-86
2022/07/20 01:28:31;;;;;;;5.88;2.78;;;15.40;99.90;;;;;;4953587;28;20404;-85
2022/07/20 01:30:59;;;;;;;4.75;2.63;;;15.30;99.90;;;;;;4984495;28;20438;-85
2022/07/20 01:33:27;;;;;;;8.60;2.92;;;15.20;99.90;;;;;;4952291;29;20463;-85
2022/07/20 01:35:54;;;;;;;6.80;2.75;;;15.20;99.90;;;;;;4952707;29;20388;-85
2022/07/20 01:38:22;;;;;;;7.72;2.83;;;15.20;99.90;;;;;;4952674;29;20875;-85
2022/07/20 01:40:50;;;;;;;7.32;3.03;;;15.10;99.90;;;;;;4952161;29;20447;-85
2022/07/20 01:43:18;;;;;;;6.72;2.55;;;15.10;99.90;;;;;;4952247;29;20432;-85
2022/07/20 01:45:45;;;;;;;4.03;2.30;;;15.10;99.90;;;;;;4953136;28;20415;-84
2022/07/20 01:48:13;;;;;;;5.47;2.35;;;15.10;99.90;;;;;;4953275;29;20407;-84
2022/07/20 01:50:41;;;;;;;4.15;1.90;;;15.00;99.90;;;;;;4968128;28;20763;-86
2022/07/20 01:53:09;;;;;;;4.05;1.95;;;15.00;99.90;;;;;;4953292;29;20412;-86
2022/07/20 01:55:36;;;;;;;4.85;1.73;;;14.90;99.90;;;;;;4954236;28;20388;-84
2022/07/20 01:58:04;;;;;;;4.00;1.73;;;14.90;99.90;;;;;;4957256;28;20396;-85
2022/07/20 02:00:32;;;;;;;6.00;2.00;;;14.70;99.90;;;;;;4956015;29;20503;-85
2022/07/20 02:02:59;;;;;;;5.10;2.13;;;14.70;99.90;;;;;;4955939;29;20443;-85
2022/07/20 02:05:27;;;;;;;5.38;1.60;;;14.70;99.90;;;;;;4957273;29;20391;-85
2022/07/20 02:07:55;;;;;;;7.72;1.80;;;14.60;99.90;;;;;;4956898;28;20400;-84
2022/07/20 02:10:22;;;;;;;3.25;1.50;;;14.60;99.90;;;;;;4957013;28;20399;-85
2022/07/20 02:12:50;;;;;;;4.63;1.60;;;14.60;99.90;;;;;;4956722;29;20419;-84
2022/07/20 02:18:11;;;;;;;5.05;1.70;;;14.60;99.90;;;;;;4955630;29;20414;-85
2022/07/20 02:20:40;;;;;;;5.05;1.60;;;14.50;99.90;;;;;;4971853;28;20754;-85
2022/07/20 02:23:09;;;;;;;4.88;1.40;;;14.40;99.90;;;;;;4956646;28;20388;-85
2022/07/20 02:25:38;;;;;;;6.15;1.67;;;14.40;99.90;;;;;;4956669;28;20396;-85
2022/07/20 02:28:07;;;;;;;2.70;1.33;;;14.30;99.90;;;;;;4956964;28;20388;-85
2022/07/20 02:30:35;;;;;;;5.18;1.20;;;14.30;99.90;;;;;;4956726;28;20901;-85
2022/07/20 02:33:03;;;;;;;4.70;1.20;;;14.30;99.90;;;;;;4955620;29;20462;-85
2022/07/20 02:35:31;;;;;;;3.78;1.23;;;14.20;99.90;;;;;;4955264;29;20400;-85
2022/07/20 02:37:58;;;;;;;3.10;1.00;;;14.20;99.90;;;;;;4956641;28;20393;-84
2022/07/20 02:40:26;;;;;;;5.47;1.38;;;14.20;99.90;;;;;;4987219;28;20962;-85
2022/07/20 02:42:54;;;;;;;4.13;1.25;;;14.20;99.90;;;;;;4987477;28;20396;-84
2022/07/20 02:45:24;;;;;;;2.53;0.85;;;14.10;99.90;;;;;;4955189;28;20411;-85
2022/07/20 02:47:52;;;;;;;7.40;1.15;;;14.10;99.90;;;;;;4955272;28;20408;-85
2022/07/20 02:50:19;;;;;;;4.35;1.10;;;14.00;99.90;;;;;;4955216;29;20459;-85
2022/07/20 02:52:47;;;;;;;4.53;1.20;;;14.10;99.90;;;;;;4956068;28;20412;-84
2022/07/20 02:55:14;;;;;;;4.78;1.00;;;13.90;99.90;;;;;;4987267;28;20409;-85
2022/07/20 02:57:42;;;;;;;3.03;1.23;;;13.90;99.90;;;;;;4987265;28;20483;-84
2022/07/20 03:00:10;;;;;;;2.77;0.93;;;13.80;99.90;;;;;;4954054;29;20392;-84
2022/07/20 03:02:38;;;;;;;2.58;0.88;;;13.80;99.90;;;;;;4967745;28;20425;-85
2022/07/20 03:05:06;;;;;;;3.40;1.13;;;13.70;99.90;;;;;;4936942;29;20397;-85
2022/07/20 03:07:33;;;;;;;2.78;0.93;;;13.60;99.90;;;;;;4935930;29;20769;-84
2022/07/20 03:10:01;;;;;;;5.60;1.15;;;13.70;99.90;;;;;;4951779;28;20413;-84
2022/07/20 03:12:29;;;;;;;2.28;0.80;;;13.70;99.90;;;;;;4936833;29;20418;-84
2022/07/20 03:14:57;;;;;;;5.55;0.88;;;13.70;99.90;;;;;;4935472;29;20492;-84
2022/07/20 03:17:24;;;;;;;3.30;1.00;;;13.50;99.90;;;;;;4936551;29;20406;-85
2022/07/20 03:19:52;;;;;;;3.67;0.90;;;13.60;99.90;;;;;;4951461;29;20394;-85
2022/07/20 03:22:20;;;;;;;5.18;1.00;;;13.60;99.90;;;;;;4966986;28;20390;-84
2022/07/20 03:24:48;;;;;;;4.20;0.90;;;13.70;99.90;;;;;;4950975;29;20394;-85
2022/07/20 03:27:15;;;;;;;1.50;0.80;;;13.70;99.90;;;;;;4936480;29;20398;-85
2022/07/20 03:29:43;;;;;;;1.43;0.70;;;13.50;99.90;;;;;;4950925;29;20429;-85
2022/07/20 03:32:11;;;;;;;3.00;1.00;;;13.50;99.90;;;;;;4951066;29;20416;-84
2022/07/20 03:34:38;;;;;;;3.53;0.82;;;13.50;99.90;;;;;;4950934;29;20772;-85
2022/07/20 03:37:06;;;;;;;3.67;1.13;;;13.60;99.90;;;;;;4951089;29;20477;-85
2022/07/20 03:39:34;;;;;;;3.60;0.85;;;13.50;99.90;;;;;;4936183;29;20400;-84
2022/07/20 03:42:01;;;;;;;3.40;0.90;;;13.50;99.90;;;;;;4934924;29;20479;-84
2022/07/20 03:44:29;;;;;;;2.90;0.70;;;13.60;99.90;;;;;;4966888;28;20465;-84
2022/07/20 03:46:56;;;;;;;1.55;0.77;;;13.50;99.90;;;;;;4967111;28;20406;-85
2022/07/20 03:49:24;;;;;;;1.27;0.70;;;13.50;99.90;;;;;;4966787;28;20769;-85
2022/07/20 03:51:52;;;;;;;4.38;0.80;;;13.50;99.90;;;;;;4936030;29;20900;-85
2022/07/20 03:54:19;;;;;;;1.50;0.75;;;13.40;99.90;;;;;;4934643;29;20413;-85
2022/07/20 03:56:47;;;;;;;2.05;0.60;;;13.40;99.90;;;;;;4950887;28;20436;-84
2022/07/20 03:59:15;;;;;;;2.20;0.80;;;13.40;99.90;;;;;;4950635;29;20402;-85
2022/07/20 04:01:42;;;;;;;2.30;0.70;;;13.40;99.90;;;;;;4935415;29;20398;-85
2022/07/20 04:04:10;;;;;;;2.63;0.80;;;13.50;99.90;;;;;;4979125;28;20410;-85
2022/07/20 04:06:38;;;;;;;2.65;0.70;;;13.40;99.90;;;;;;4950798;29;20939;-85
2022/07/20 04:09:05;;;;;;;2.58;0.70;;;13.40;99.90;;;;;;4966592;28;20441;-86
2022/07/20 04:11:33;;;;;;;3.50;0.75;;;13.30;99.90;;;;;;4966428;28;20781;-85
2022/07/20 04:14:01;;;;;;;3.72;0.80;;;13.40;99.90;;;;;;4966271;28;20429;-85
2022/07/20 04:16:28;;;;;;;3.30;1.03;;;13.40;99.90;;;;;;4935480;29;20413;-84
2022/07/20 04:18:56;;;;;;;2.30;1.00;;;13.40;99.90;;;;;;4927720;29;20491;-84
2022/07/20 04:21:23;;;;;;;1.38;0.60;;;13.40;99.90;;;;;;4931050;29;20399;-84
2022/07/20 04:23:51;;;;;;;2.30;0.80;;;13.30;99.90;;;;;;4916323;29;20463;-84
2022/07/20 04:26:19;;;;;;;3.20;0.90;;;13.40;99.90;;;;;;4946673;29;20395;-85
2022/07/20 04:28:46;;;;;;;3.10;0.80;;;13.40;99.90;;;;;;4946701;29;20433;-84
2022/07/20 04:31:14;;;;;;;2.65;0.80;;;13.40;99.90;;;;;;4916462;29;20478;-84
2022/07/20 04:33:42;;;;;;;5.30;1.07;;;13.40;99.90;;;;;;4916100;29;20425;-84
2022/07/20 04:36:09;;;;;;;2.78;0.90;;;13.50;99.90;;;;;;4916101;29;20403;-84
2022/07/20 04:38:37;;;;;;;2.50;0.65;;;13.50;99.90;;;;;;4916044;29;20491;-84
2022/07/20 04:41:05;;;;;;;2.40;0.80;;;13.50;99.90;;;;;;4946602;29;20525;-84
2022/07/20 04:43:32;;;;;;;2.75;0.88;;;13.60;99.90;;;;;;4930571;29;20470;-84
2022/07/20 04:46:00;;;;;;;1.75;0.80;;;13.50;99.90;;;;;;4946199;29;20510;-84
2022/07/20 04:48:28;;;;;;;2.17;0.73;;;13.60;99.90;;;;;;4946263;28;20417;-84
2022/07/20 04:50:55;;;;;;;3.20;0.60;;;13.50;99.90;;;;;;4915963;29;20404;-84
2022/07/20 04:53:23;;;;;;;4.28;0.90;;;13.50;99.90;;;;;;4946375;29;20411;-84
2022/07/20 04:55:51;;;;;;;3.08;0.65;;;13.60;99.90;;;;;;4946428;29;20399;-84
2022/07/20 04:58:18;;;;;;;1.60;0.70;;;13.50;99.90;;;;;;4946068;29;20974;-83
2022/07/20 05:00:46;;;;;;;2.72;0.70;;;13.50;99.90;;;;;;4915764;29;20402;-84
2022/07/20 05:03:14;;;;;;;4.60;1.10;;;13.50;99.90;;;;;;4930354;29;20488;-85
2022/07/20 05:05:42;;;;;;;6.72;3.13;;;13.60;99.90;;;;;;4932500;29;20438;-85
2022/07/20 05:08:14;;;;;;;5.10;2.25;;;13.70;99.90;;;;;;4932965;29;20450;-86
2022/07/20 05:10:42;;;;;;;1.95;0.90;;;13.80;99.90;;;;;;4965359;28;20402;-85
2022/07/20 05:13:10;;;;;;;3.05;0.70;;;13.70;99.90;;;;;;4934478;29;20801;-85
2022/07/20 05:15:37;;;;;;;3.93;1.20;;;13.80;99.90;;;;;;4965441;28;20410;-85
2022/07/20 05:18:05;;;;;;;2.50;0.80;;;13.80;99.90;;;;;;4949627;29;20417;-85
2022/07/20 05:20:33;;;;;;;2.55;0.80;;;13.80;99.90;;;;;;4949156;29;20764;-84
2022/07/20 05:23:00;;;;;;;2.90;0.70;;;13.80;99.90;;;;;;4965344;28;20414;-87
2022/07/20 05:25:28;;;;;;;2.30;0.73;;;13.80;99.90;;;;;;4933704;29;20899;-84
2022/07/20 05:27:56;;;;;;;2.22;0.63;;;13.80;99.90;;;;;;4945867;29;20419;-86
2022/07/20 05:30:23;;;;;;;11.32;6.10;;;13.90;99.90;;;;;;4951517;29;20404;-86
2022/07/20 05:32:51;;;;;;;2.80;0.73;;;13.90;99.90;;;;;;4952058;28;20428;-85
2022/07/20 05:35:18;;;;;;;4.47;1.30;;;13.90;99.90;;;;;;4935363;28;20398;-86
2022/07/20 05:37:46;;;;;;;2.78;1.20;;;13.90;99.90;;;;;;4934605;29;20393;-84
2022/07/20 05:40:13;;;;;;;2.75;0.80;;;13.90;99.90;;;;;;4934653;29;20398;-86
2022/07/20 05:42:41;;;;;;;1.67;0.60;;;13.90;99.90;;;;;;4933484;29;20393;-85
2022/07/20 05:45:09;;;;;;;3.07;0.70;;;13.90;99.90;;;;;;4917483;29;20405;-87
2022/07/20 05:47:36;;;;;;;2.05;0.70;;;14.00;99.90;;;;;;4948825;29;20408;-85
2022/07/20 05:50:04;;;;;;;1.83;0.60;;;14.00;99.90;;;;;;4934762;29;20457;-85
2022/07/20 05:52:32;;;;;;;4.35;0.60;;;14.00;99.90;;;;;;4934773;29;20398;-85
2022/07/20 05:55:00;;;;;;;2.60;0.60;;;14.10;99.90;;;;;;4932382;29;20824;-85
2022/07/20 05:57:27;;;;;;;2.28;0.70;;;14.00;99.90;;;;;;4934422;29;20486;-86
2022/07/20 05:59:55;;;;;;;2.67;0.60;;;14.10;99.90;;;;;;4933209;29;20449;-85
2022/07/20 06:02:22;;;;;;;1.57;0.60;;;14.10;99.90;;;;;;4934426;29;20398;-85
2022/07/20 06:04:50;;;;;;;2.30;0.50;;;14.20;99.90;;;;;;4933251;29;20398;-85
2022/07/20 06:07:18;;;;;;;1.00;0.50;;;14.10;99.90;;;;;;4949184;29;20764;-85
2022/07/20 06:09:45;;;;;;;2.35;0.65;;;14.10;99.90;;;;;;4934354;29;20393;-84
2022/07/20 06:12:13;;;;;;;1.35;0.60;;;14.20;99.90;;;;;;4965152;28;20437;-84
2022/07/20 06:14:41;;;;;;;1.20;0.55;;;14.20;99.90;;;;;;4965263;28;20421;-85
2022/07/20 06:17:08;;;;;;;1.08;0.57;;;14.20;99.90;;;;;;4965054;28;20506;-85
2022/07/20 06:19:36;;;;;;;1.98;0.60;;;14.30;99.90;;;;;;4948888;29;20406;-85
2022/07/20 06:22:04;;;;;;;0.90;0.50;;;14.50;99.90;;;;;;4964924;28;20457;-86
2022/07/20 06:24:32;;;;;;;1.92;0.60;;;14.40;99.90;;;;;;4964877;28;20420;-86
2022/07/20 06:26:59;;;;;;;1.70;0.70;;;14.50;99.90;;;;;;4964719;28;20505;-86
2022/07/20 06:29:27;;;;;;;1.15;0.40;;;14.40;99.90;;;;;;4948698;29;20398;-86
2022/07/20 06:31:54;;;;;;;3.20;0.60;;;14.50;99.90;;;;;;4964826;28;20457;-85
2022/07/20 06:34:42;;;;;;;1.77;0.50;;;14.40;99.90;;;;;;4932735;29;20497;-86
2022/07/20 06:37:10;;;;;;;3.83;0.57;;;14.40;99.90;;;;;;4948487;29;20394;-86
2022/07/20 06:39:37;;;;;;;4.88;0.80;;;14.40;99.90;;;;;;4964725;28;20406;-85
2022/07/20 06:42:13;;;;;;;1.58;0.57;;;14.50;99.90;;;;;;4965316;28;20915;-86
2022/07/20 06:44:41;;;;;;;2.58;0.60;;;14.60;99.90;;;;;;4954639;28;20429;-86
2022/07/20 06:47:09;;;;;;;1.35;0.60;;;14.60;99.90;;;;;;4952070;29;20409;-85
2022/07/20 06:49:37;;;;;;;1.13;0.50;;;14.70;99.90;;;;;;4968266;28;20409;-85
2022/07/20 06:52:04;;;;;;;2.97;0.50;;;14.70;99.90;;;;;;4968189;28;20413;-86
2022/07/20 06:54:34;;;;;;;2.17;0.70;;;14.80;99.90;;;;;;4967110;28;20750;-85
2022/07/20 06:57:01;;;;;;;1.52;0.50;;;14.80;99.90;;;;;;4951141;29;20398;-85
2022/07/20 06:59:29;;;;;;;2.40;0.60;;;14.80;99.90;;;;;;4935802;29;20390;-84
2022/07/20 07:01:57;;;;;;;1.25;0.40;;;14.80;99.90;;;;;;4967114;28;20795;-85
2022/07/20 07:04:24;;;;;;;3.35;0.63;;;14.90;99.90;;;;;;4936416;29;20915;-86
2022/07/20 07:06:52;;;;;;;1.05;0.60;;;15.00;99.90;;;;;;4936250;29;20405;-85
2022/07/20 07:09:19;;;;;;;2.05;0.63;;;15.00;99.90;;;;;;4936693;29;20394;-85
2022/07/20 07:11:54;;;;;;;2.47;0.60;;;15.10;99.90;;;;;;4936797;29;20397;-84
2022/07/20 07:14:22;;;;;;;2.65;0.60;;;15.10;99.90;;;;;;4951339;29;20476;-84
2022/07/20 07:16:49;;;;;;;0.97;0.43;;;15.10;99.90;;;;;;4936735;29;20517;-84
2022/07/20 07:19:17;;;;;;;1.10;0.60;;;15.10;99.90;;;;;;4936613;29;20394;-84
2022/07/20 07:21:45;;;;;;;1.00;0.50;;;15.20;99.90;;;;;;4936614;29;20409;-84
2022/07/20 07:24:12;;;;;;;1.88;0.50;;;15.20;99.90;;;;;;4967196;28;20880;-84
2022/07/20 07:26:40;;;;;;;2.83;0.60;;;15.20;99.90;;;;;;4967453;28;20742;-84
2022/07/20 07:29:08;;;;;;;3.17;0.60;;;15.30;99.90;;;;;;4936567;29;20458;-84
2022/07/20 07:31:36;;;;;;;2.92;0.57;;;15.40;99.90;;;;;;4951131;29;20412;-84
2022/07/20 07:34:04;;;;;;;2.70;0.50;;;15.50;99.90;;;;;;4936352;29;20410;-84
2022/07/20 07:36:34;;;;;;;2.05;0.50;;;15.50;99.90;;;;;;4936354;29;20485;-85
2022/07/20 07:39:04;;;;;;;0.95;0.43;;;15.50;99.90;;;;;;4936465;29;20394;-84
2022/07/20 07:41:32;;;;;;;3.55;0.57;;;15.60;99.90;;;;;;4936145;29;20418;-84
2022/07/20 07:44:00;;;;;;;2.92;0.50;;;15.60;99.90;;;;;;4936187;29;20406;-84
2022/07/20 07:46:28;;;;;;;1.17;0.50;;;15.70;99.90;;;;;;4966756;28;20410;-84
2022/07/20 07:48:55;;;;;;;0.63;0.43;;;15.70;99.90;;;;;;4936142;29;20824;-84
2022/07/20 07:51:23;;;;;;;2.20;0.40;;;15.80;99.90;;;;;;4966786;28;20401;-84
2022/07/20 07:53:51;;;;;;;1.55;0.40;;;15.80;99.90;;;;;;4935656;29;20417;-84
2022/07/20 07:56:19;;;;;;;2.75;0.60;;;15.90;99.90;;;;;;4935923;29;20393;-83
2022/07/20 07:58:47;;;;;;;1.10;0.32;;;15.90;99.90;;;;;;4935851;29;20523;-84
2022/07/20 08:01:35;;;;;;;2.40;0.60;;;16.00;99.90;;;;;;4935858;29;20467;-84
2022/07/20 08:04:04;;;;;;;1.83;0.50;;;16.00;99.90;;;;;;4934695;29;20405;-84
2022/07/20 08:06:32;;;;;;;2.95;0.50;;;16.00;99.90;;;;;;4935797;29;20473;-85
2022/07/20 08:09:00;;;;;;;0.93;0.45;;;16.00;99.90;;;;;;4966475;28;20406;-84
2022/07/20 08:11:30;;;;;;;2.17;0.50;;;16.10;99.90;;;;;;4966743;28;20514;-85
2022/07/20 08:13:59;;;;;;;1.67;0.50;;;16.10;99.90;;;;;;4935536;29;20841;-84
2022/07/20 08:16:27;;;;;;;1.40;0.60;;;16.10;99.90;;;;;;4950185;29;20394;-84
2022/07/20 08:18:54;;;;;;;1.50;0.50;;;16.20;99.90;;;;;;4950206;29;21002;-85
2022/07/20 08:21:22;;;;;;;1.48;0.57;;;16.30;99.90;;;;;;4950208;28;20398;-85
2022/07/20 08:23:50;;;;;;;1.23;0.45;;;16.40;99.90;;;;;;4966329;28;20425;-85
2022/07/20 08:26:19;;;;;;;1.17;0.50;;;16.40;99.90;;;;;;4950645;28;20413;-85
2022/07/20 08:28:46;;;;;;;3.03;0.50;;;16.40;99.90;;;;;;4934370;29;21012;-85
2022/07/20 08:31:14;;;;;;;2.67;0.50;;;16.40;99.90;;;;;;4934209;29;20401;-86
2022/07/20 08:33:42;;;;;;;1.75;0.50;;;16.40;99.90;;;;;;4966141;28;20406;-85
2022/07/20 08:36:10;;;;;;;2.55;0.50;;;16.40;99.90;;;;;;4966140;28;20738;-85
2022/07/20 08:38:37;;;;;;;1.10;0.40;;;16.40;99.90;;;;;;4965883;28;20880;-85
2022/07/20 08:41:08;;;;;;;2.55;0.50;;;16.50;99.90;;;;;;4935100;29;20753;-85
2022/07/20 08:43:36;;;;;;;2.03;0.52;;;16.60;99.90;;;;;;4935154;29;20394;-85
2022/07/20 08:46:03;;;;;;;1.20;0.50;;;16.70;99.90;;;;;;4935026;29;20493;-85
2022/07/20 08:48:34;;;;;;;3.05;0.50;;;16.70;99.90;;;;;;4934105;29;20465;-85
2022/07/20 08:51:02;;;;;;;3.30;0.70;;;16.80;99.90;;;;;;4934012;29;20481;-85
2022/07/20 08:53:29;;;;;;;3.25;0.50;;;16.80;99.90;;;;;;4965852;28;20441;-86
2022/07/20 08:55:57;;;;;;;1.40;0.60;;;16.80;99.90;;;;;;4935044;29;20432;-85
2022/07/20 08:58:25;;;;;;;2.78;0.52;;;16.90;99.90;;;;;;4949705;29;20409;-85
2022/07/20 09:00:52;;;;;;;1.60;0.50;;;16.90;99.90;;;;;;4965804;28;20402;-85
2022/07/20 09:03:20;;;;;;;1.77;0.60;;;17.00;99.90;;;;;;4965626;28;20471;-85
2022/07/20 09:06:02;;;;;;;3.37;0.60;;;16.90;99.90;;;;;;4934190;29;20398;-85
2022/07/20 09:08:31;;;;;;;1.20;0.50;;;17.00;99.90;;;;;;4965369;28;20398;-86
2022/07/20 09:11:02;;;;;;;3.90;0.50;;;17.10;99.90;;;;;;4965830;28;20405;-85
2022/07/20 09:13:32;;;;;;;2.67;0.50;;;17.20;99.90;;;;;;4965641;28;20405;-86
2022/07/20 09:16:00;;;;;;;1.70;0.40;;;17.20;99.90;;;;;;4933623;29;20417;-85
2022/07/20 09:18:33;;;;;;;2.25;0.40;;;17.20;99.90;;;;;;4965506;28;20492;-86
2022/07/20 09:21:05;;;;;;;3.42;0.70;;;17.30;99.90;;;;;;4933516;29;20402;-85
2022/07/20 09:23:42;;;;;;;4.00;0.70;;;17.50;99.90;;;;;;4933627;29;20405;-86
2022/07/20 09:26:12;;;;;;;2.13;0.52;;;17.60;99.90;;;;;;4964813;28;23361;-85
2022/07/20 09:28:45;;;;;;;1.50;0.60;;;17.60;99.90;;;;;;4965471;28;20689;-85
2022/07/20 09:31:14;;;;;;;1.67;0.47;;;17.60;99.90;;;;;;4933387;29;20405;-85
2022/07/20 09:33:57;;;;;;;1.60;0.50;;;17.70;99.90;;;;;;4949125;29;20489;-86
2022/07/20 09:36:28;;;;;;;1.92;0.60;;;17.80;99.90;;;;;;4949028;29;20440;-85
2022/07/20 09:39:13;;;;;;;3.92;0.70;;;17.90;99.90;;;;;;4965221;28;20818;-86
2022/07/20 09:41:43;;;;;;;4.03;0.65;;;17.80;99.90;;;;;;4965237;28;20473;-86
2022/07/20 09:44:22;;;;;;;2.30;0.52;;;17.80;99.90;;;;;;4934390;29;20833;-85
2022/07/20 09:46:50;;;;;;;3.78;0.60;;;17.90;99.90;;;;;;4948988;28;20401;-85
2022/07/20 09:49:18;;;;;;;1.75;0.65;;;18.00;99.90;;;;;;4948760;29;20413;-85
2022/07/20 09:51:56;;;;;;;2.40;0.63;;;18.00;99.90;;;;;;4934284;29;20398;-85
2022/07/20 09:54:44;;;;;;;2.17;0.50;;;18.00;99.90;;;;;;4959852;28;20781;-86
2022/07/20 09:57:12;;;;;;;2.30;0.60;;;18.20;99.90;;;;;;4949001;29;20477;-85
2022/07/20 09:59:47;;;;;;;2.17;0.50;;;18.20;99.90;;;;;;4933133;29;20757;-85
2022/07/20 10:02:14;;;;;;;1.15;0.40;;;18.20;99.90;;;;;;4964951;28;20486;-85
2022/07/20 10:04:45;;;;;;;3.50;0.60;;;18.20;99.90;;;;;;4934054;29;20757;-84
2022/07/20 10:07:12;;;;;;;2.90;0.50;;;18.30;99.90;;;;;;4934415;29;20398;-85
2022/07/20 10:09:40;;;;;;;2.30;0.47;;;18.50;99.90;;;;;;4932901;29;20403;-84
2022/07/20 10:12:08;;;;;;;2.85;0.55;;;18.40;99.90;;;;;;4948601;29;20408;-84
2022/07/20 10:14:38;;;;;;;1.83;0.43;;;18.50;99.90;;;;;;4964630;28;20418;-85
2022/07/20 10:17:06;;;;;;;2.58;0.40;;;18.50;99.90;;;;;;4966482;28;20761;-85
2022/07/20 10:19:42;;;;;;;1.47;0.63;;;18.60;99.90;;;;;;4936695;29;20413;-84
2022/07/20 10:22:12;;;;;;;2.17;0.47;;;18.50;99.90;;;;;;4936669;29;20462;-85
2022/07/20 10:24:42;;;;;;;2.03;0.50;;;18.50;99.90;;;;;;4952713;29;20412;-84
2022/07/20 10:27:15;;;;;;;1.20;0.50;;;18.70;99.90;;;;;;4936760;29;20413;-84
2022/07/20 10:29:50;;;;;;;4.35;0.50;;;18.80;99.90;;;;;;4937661;29;20402;-84
2022/07/20 10:32:26;;;;;;;2.35;0.47;;;19.00;99.90;;;;;;4936419;29;20416;-83
2022/07/20 10:35:03;;;;;;;2.33;0.40;;;19.00;99.90;;;;;;4948906;29;20486;-84
2022/07/20 10:37:42;;;;;;;2.25;0.40;;;18.90;99.90;;;;;;4918439;29;20909;-83
2022/07/20 10:40:13;;;;;;;2.42;0.50;;;19.00;99.90;;;;;;4948831;29;20456;-84
2022/07/20 10:42:50;;;;;;;4.32;0.70;;;19.00;99.90;;;;;;4918353;29;20466;-84
2022/07/20 10:45:20;;;;;;;1.80;0.50;;;19.10;99.90;;;;;;4918042;29;20474;-83
2022/07/20 10:47:51;;;;;;;1.50;0.40;;;19.20;99.90;;;;;;4917137;29;20478;-83
2022/07/20 10:50:30;;;;;;;3.30;0.50;;;19.10;99.90;;;;;;4918582;29;20406;-83
2022/07/20 10:53:08;;;;;;;1.45;0.40;;;19.20;99.90;;;;;;4937082;29;20434;-82
2022/07/20 10:55:36;;;;;;;2.60;0.45;;;19.30;99.90;;;;;;4935889;29;20422;-83
2022/07/20 10:58:09;;;;;;;0.93;0.38;;;19.30;99.90;;;;;;4937088;29;20394;-83
2022/07/20 11:00:41;;;;;;;2.83;0.50;;;19.30;99.90;;;;;;4937021;29;20761;-83
2022/07/20 11:03:29;;;;;;;2.55;0.50;;;19.60;99.90;;;;;;4937024;29;20804;-83
2022/07/20 11:06:05;;;;;;;2.83;0.47;;;19.50;99.90;;;;;;4935896;29;20808;-83
2022/07/20 11:08:39;;;;;;;1.40;0.50;;;19.50;99.90;;;;;;4936814;29;20410;-82
2022/07/20 11:11:12;;;;;;;2.28;0.50;;;19.60;99.90;;;;;;4934805;29;20853;-82
2022/07/20 11:13:40;;;;;;;2.38;0.40;;;19.50;99.90;;;;;;4935567;29;20420;-82
2022/07/20 11:16:08;;;;;;;2.63;0.40;;;19.50;99.90;;;;;;4947901;29;20467;-82
2022/07/20 11:18:36;;;;;;;1.45;0.52;;;19.70;99.90;;;;;;4917598;29;20395;-82
2022/07/20 11:21:14;;;;;;;1.50;0.60;;;19.90;99.90;;;;;;4947834;29;20431;-82
2022/07/20 11:23:50;;;;;;;1.20;0.50;;;19.80;99.90;;;;;;4942045;29;20777;-82
2022/07/20 11:26:20;;;;;;;1.60;0.50;;;20.00;99.90;;;;;;4930187;28;20443;-82
2022/07/20 11:28:53;;;;;;;1.10;0.40;;;20.10;99.90;;;;;;4943295;28;20909;-84
2022/07/20 11:31:25;;;;;;;1.70;0.55;;;20.10;99.90;;;;;;4961297;28;20489;-84
2022/07/20 11:33:55;;;;;;;1.67;0.40;;;20.00;99.90;;;;;;4936518;29;20504;-84
2022/07/20 11:36:36;;;;;;;3.55;0.50;;;20.10;99.90;;;;;;4954406;29;20412;-84
2022/07/20 11:43:16;;;;;;;2.88;0.47;;;20.40;99.90;;;;;;4944803;29;20443;-84
2022/07/20 11:45:43;;;;;;;2.78;0.52;;;20.40;99.90;;;;;;4944667;28;20908;-83
2022/07/20 11:48:16;;;;;;;2.10;0.40;;;20.50;99.90;;;;;;4985835;28;20487;-84
2022/07/20 11:51:06;;;;;;;1.77;0.40;;;20.50;99.90;;;;;;4947337;29;20416;-83
2022/07/20 11:53:37;;;;;;;0.95;0.40;;;20.40;99.90;;;;;;4952289;28;20402;-84
2022/07/20 11:56:20;;;;;;;1.55;0.35;;;20.40;99.90;;;;;;4953165;29;20419;-84
2022/07/20 11:58:54;;;;;;;1.50;0.40;;;20.40;99.90;;;;;;4954868;28;20911;-84
2022/07/20 12:01:30;;;;;;;2.28;0.40;;;20.50;99.90;;;;;;4944169;28;20405;-84
2022/07/20 12:04:04;;;;;;;2.75;0.47;;;20.50;99.90;;;;;;4935663;29;20394;-84
2022/07/20 12:06:35;;;;;;;1.17;0.43;;;20.50;99.90;;;;;;4966260;28;20526;-84
2022/07/20 12:09:10;;;;;;;2.23;0.47;;;20.70;99.90;;;;;;4935652;29;20397;-84
2022/07/20 12:11:59;;;;;;;2.58;0.30;;;20.70;99.90;;;;;;4935488;29;20406;-84
2022/07/20 12:14:35;;;;;;;1.75;0.55;;;20.90;99.90;;;;;;4939173;29;20490;-84
2022/07/20 12:17:27;;;;;;;1.05;0.40;;;20.90;99.90;;;;;;4954407;29;20428;-84
2022/07/20 12:19:59;;;;;;;1.23;0.40;;;20.90;99.90;;;;;;4942209;28;20393;-84
2022/07/20 12:22:33;;;;;;;1.75;0.50;;;20.90;99.90;;;;;;4935144;29;20908;-84
2022/07/20 12:25:07;;;;;;;1.90;0.40;;;21.00;99.90;;;;;;4935293;29;20398;-84
2022/07/20 12:27:37;;;;;;;0.40;0.35;;;21.10;99.90;;;;;;4935268;29;20773;-84
2022/07/20 12:30:36;;;;;;;4.37;0.50;;;21.00;99.90;;;;;;4933711;29;20445;-83
2022/07/20 12:33:08;;;;;;;3.20;0.70;;;21.20;99.90;;;;;;4913269;29;20409;-83
2022/07/20 12:35:38;;;;;;;1.23;0.50;;;21.20;99.90;;;;;;4965713;28;20420;-83
2022/07/20 12:38:07;;;;;;;1.25;0.47;;;21.30;99.90;;;;;;4935158;29;20880;-82
2022/07/20 12:40:37;;;;;;;1.10;0.60;;;21.30;99.90;;;;;;4934074;29;20493;-83
2022/07/20 12:43:32;;;;;;;1.30;0.47;;;21.50;99.90;;;;;;4965178;28;20481;-83
2022/07/20 12:46:11;;;;;;;1.95;0.50;;;21.60;99.90;;;;;;4934667;29;20892;-83
2022/07/20 12:48:46;;;;;;;3.08;0.80;;;21.60;99.90;;;;;;4952398;29;20400;-83
2022/07/20 12:51:17;;;;;;;4.72;0.50;;;21.50;99.90;;;;;;4952806;29;20397;-83
2022/07/20 12:53:48;;;;;;;1.48;0.70;;;21.60;99.90;;;;;;4984924;28;20787;-83
2022/07/20 12:56:16;;;;;;;3.45;0.60;;;21.60;99.90;;;;;;4968570;28;20414;-83
2022/07/20 12:58:44;;;;;;;3.30;0.52;;;21.70;99.90;;;;;;4953791;28;20405;-84
2022/07/20 13:01:12;;;;;;;2.15;0.50;;;21.60;99.90;;;;;;4952763;28;20403;-83
2022/07/20 13:03:40;;;;;;;2.13;0.40;;;21.60;99.90;;;;;;4952561;28;20404;-83
2022/07/20 13:06:08;;;;;;;4.28;0.50;;;21.50;99.90;;;;;;4952561;29;20404;-84
2022/07/20 13:08:35;;;;;;;1.77;0.47;;;21.60;99.90;;;;;;4952419;28;20407;-83